Time;durP1;ratioP1;P1;durP2;ratioP2;P2;SDS_P1;SDS_P2;PMS_P1;PMS_P2;Temp;Humidity;BMP_temperature;BMP_pressure;BME280_temperature;BME280_humidity;BME280_pressure;Samples;Min_cycle;Max_cycle;Signal;HPM_P1;HPM_P2
2021/06/03 00:01:37;;;;;;;1.35;1.25;;;24.40;54.40;;;;;;5054499;28;20020;-62
2021/06/03 00:04:03;;;;;;;1.52;1.42;;;24.60;54.60;;;;;;5054497;28;20051;-63
2021/06/03 00:06:29;;;;;;;1.67;1.23;;;24.40;54.50;;;;;;5054849;28;20025;-62
2021/06/03 00:08:54;;;;;;;2.38;1.33;;;24.80;54.80;;;;;;5053576;28;20110;-62
2021/06/03 00:11:20;;;;;;;2.00;1.55;;;24.40;54.60;;;;;;5053157;28;20021;-62
2021/06/03 00:13:49;;;;;;;2.97;1.52;;;24.40;54.60;;;;;;5054467;28;20099;-62
2021/06/03 00:16:16;;;;;;;2.47;1.30;;;24.40;54.60;;;;;;5054654;28;20104;-62
2021/06/03 00:18:42;;;;;;;2.58;1.50;;;24.40;54.70;;;;;;5054264;28;20024;-62
2021/06/03 00:21:09;;;;;;;1.90;1.48;;;24.70;54.90;;;;;;5054505;28;20099;-62
2021/06/03 00:23:35;;;;;;;1.20;1.00;;;24.60;54.90;;;;;;5054139;28;20074;-62
2021/06/03 00:26:01;;;;;;;3.58;1.70;;;24.30;54.70;;;;;;5054393;28;20021;-61
2021/06/03 00:28:27;;;;;;;1.60;1.50;;;24.40;54.80;;;;;;5054363;28;20025;-62
2021/06/03 00:30:53;;;;;;;1.52;1.40;;;24.50;54.90;;;;;;5054021;28;20025;-62
2021/06/03 00:33:19;;;;;;;1.58;1.30;;;24.70;55.00;;;;;;5054039;28;20013;-61
2021/06/03 00:35:45;;;;;;;1.95;1.40;;;24.30;54.80;;;;;;5054218;28;20407;-62
2021/06/03 00:38:11;;;;;;;1.95;1.30;;;24.30;54.90;;;;;;5053934;28;20476;-62
2021/06/03 00:40:37;;;;;;;2.88;1.50;;;24.30;54.90;;;;;;5053911;28;20025;-62
2021/06/03 00:43:04;;;;;;;2.10;1.23;;;24.30;54.90;;;;;;5052883;28;20025;-62
2021/06/03 00:45:35;;;;;;;2.35;1.10;;;24.50;55.10;;;;;;5053968;28;20090;-62
2021/06/03 00:48:01;;;;;;;1.27;1.17;;;24.30;55.00;;;;;;5053803;28;20017;-62
2021/06/03 00:50:37;;;;;;;1.83;1.30;;;24.40;55.10;;;;;;5053937;28;20023;-62
2021/06/03 00:53:11;;;;;;;3.72;1.33;;;24.40;55.10;;;;;;5053853;28;20021;-62
2021/06/03 00:55:39;;;;;;;1.95;1.35;;;24.50;55.20;;;;;;5052343;28;20052;-61
2021/06/03 00:58:05;;;;;;;1.48;1.38;;;24.60;55.30;;;;;;5053524;28;20016;-62
2021/06/03 01:00:30;;;;;;;1.55;1.38;;;24.60;55.30;;;;;;5054038;28;20031;-61
2021/06/03 01:02:56;;;;;;;2.80;1.50;;;24.30;55.20;;;;;;5053773;28;20021;-61
2021/06/03 01:05:28;;;;;;;1.63;1.42;;;24.30;55.30;;;;;;5053163;28;20491;-62
2021/06/03 01:07:57;;;;;;;1.42;1.33;;;24.40;55.30;;;;;;5053434;28;20013;-62
2021/06/03 01:10:32;;;;;;;1.33;1.23;;;24.30;55.30;;;;;;5053390;28;20023;-62
2021/06/03 01:13:09;;;;;;;1.90;1.60;;;24.30;55.30;;;;;;5053335;28;20052;-62
2021/06/03 01:15:37;;;;;;;1.35;1.25;;;24.30;55.30;;;;;;5053505;28;20037;-62
2021/06/03 01:18:04;;;;;;;1.60;1.50;;;24.30;55.40;;;;;;5053480;28;20025;-62
2021/06/03 01:20:33;;;;;;;2.03;1.30;;;24.20;55.40;;;;;;5053400;28;20029;-62
2021/06/03 01:23:29;;;;;;;1.52;1.40;;;24.70;55.70;;;;;;5051820;28;20063;-62
2021/06/03 01:25:56;;;;;;;2.78;1.85;;;24.20;55.40;;;;;;5053379;28;20036;-62
2021/06/03 01:28:23;;;;;;;2.45;1.48;;;24.20;55.50;;;;;;5053100;28;20483;-63
2021/06/03 01:30:55;;;;;;;1.42;1.33;;;24.30;55.60;;;;;;5053316;28;20025;-62
2021/06/03 01:33:25;;;;;;;1.92;1.50;;;24.20;55.50;;;;;;5053014;28;20090;-62
2021/06/03 01:35:54;;;;;;;2.65;1.48;;;24.00;55.40;;;;;;5051702;28;20111;-62
2021/06/03 01:38:26;;;;;;;1.48;1.38;;;24.10;55.60;;;;;;5053172;28;20064;-62
2021/06/03 01:40:53;;;;;;;2.17;1.30;;;24.50;55.80;;;;;;5053173;28;20013;-62
2021/06/03 01:43:20;;;;;;;1.58;1.48;;;24.20;55.60;;;;;;5053173;28;20387;-62
2021/06/03 01:45:48;;;;;;;1.30;1.20;;;24.30;55.70;;;;;;5052757;28;20537;-62
2021/06/03 01:48:19;;;;;;;1.15;1.10;;;24.60;55.90;;;;;;5052755;28;20490;-62
2021/06/03 01:50:46;;;;;;;2.20;1.40;;;24.60;56.00;;;;;;5052901;28;20107;-62
2021/06/03 01:53:12;;;;;;;1.33;1.23;;;24.60;56.00;;;;;;5052895;28;20013;-62
2021/06/03 01:55:38;;;;;;;1.77;1.30;;;24.20;55.80;;;;;;5052768;28;20388;-62
2021/06/03 01:58:04;;;;;;;1.52;1.20;;;24.20;55.80;;;;;;5052730;28;20024;-62
2021/06/03 02:00:31;;;;;;;2.47;1.30;;;24.30;55.90;;;;;;5052546;28;20135;-63
2021/06/03 02:02:57;;;;;;;1.40;1.27;;;24.50;56.10;;;;;;5052961;28;20024;-62
2021/06/03 02:05:22;;;;;;;1.80;1.35;;;24.20;56.50;;;;;;5052327;28;20060;-62
2021/06/03 02:07:48;;;;;;;2.00;1.65;;;24.20;55.90;;;;;;5052733;28;20037;-62
2021/06/03 02:10:16;;;;;;;1.60;1.50;;;24.20;55.90;;;;;;5052782;28;20048;-62
2021/06/03 02:13:03;;;;;;;1.23;1.13;;;24.20;55.90;;;;;;5052765;28;20096;-62
2021/06/03 02:15:36;;;;;;;1.77;1.35;;;24.20;55.90;;;;;;5051205;28;20115;-63
2021/06/03 02:18:06;;;;;;;1.50;1.35;;;24.50;56.20;;;;;;5052442;28;20025;-63
2021/06/03 02:20:37;;;;;;;1.40;1.20;;;24.20;56.00;;;;;;5052439;28;20032;-62
2021/06/03 02:23:03;;;;;;;3.58;1.67;;;24.20;56.00;;;;;;5054078;28;20158;-62
2021/06/03 02:25:29;;;;;;;1.73;1.50;;;24.20;56.00;;;;;;5056348;28;20037;-62
2021/06/03 02:27:56;;;;;;;2.15;1.30;;;24.20;56.10;;;;;;5056390;28;20021;-62
2021/06/03 02:30:24;;;;;;;1.45;1.30;;;24.30;56.10;;;;;;5056384;28;20032;-62
2021/06/03 02:32:50;;;;;;;1.38;1.27;;;24.10;56.10;;;;;;5056600;28;20025;-62
2021/06/03 02:35:16;;;;;;;1.40;1.30;;;23.80;55.90;;;;;;5056279;28;20025;-62
2021/06/03 02:37:43;;;;;;;1.42;1.10;;;24.10;56.10;;;;;;5056520;28;20032;-62
2021/06/03 02:40:13;;;;;;;1.75;1.63;;;24.20;56.10;;;;;;5056372;28;20021;-62
2021/06/03 02:42:40;;;;;;;1.85;1.00;;;24.10;56.10;;;;;;5056207;28;20017;-62
2021/06/03 02:45:12;;;;;;;1.30;1.20;;;24.10;56.10;;;;;;5055907;28;20060;-62
2021/06/03 02:47:39;;;;;;;2.22;1.50;;;24.10;56.10;;;;;;5054754;28;20383;-62
2021/06/03 02:50:07;;;;;;;1.20;1.05;;;24.30;56.20;;;;;;5056220;28;20468;-62
2021/06/03 02:52:33;;;;;;;2.13;1.20;;;24.10;56.20;;;;;;5055843;28;20029;-62
2021/06/03 02:54:59;;;;;;;2.90;1.42;;;24.20;56.20;;;;;;5056193;28;20414;-62
2021/06/03 02:57:25;;;;;;;1.30;1.20;;;24.40;56.40;;;;;;5056035;28;20029;-62
2021/06/03 02:59:51;;;;;;;1.75;1.33;;;24.10;56.20;;;;;;5055851;28;20028;-62
2021/06/03 03:02:16;;;;;;;1.27;1.17;;;24.10;56.20;;;;;;5055750;28;20029;-62
2021/06/03 03:04:42;;;;;;;1.27;1.17;;;24.20;56.30;;;;;;5055619;28;20075;-62
2021/06/03 03:07:07;;;;;;;1.15;1.02;;;24.10;56.20;;;;;;5055940;28;20365;-62
2021/06/03 03:09:33;;;;;;;1.00;1.00;;;24.10;56.20;;;;;;5055860;28;20070;-62
2021/06/03 03:11:59;;;;;;;1.13;1.10;;;24.10;56.30;;;;;;5055845;28;20035;-62
2021/06/03 03:14:24;;;;;;;1.50;1.40;;;24.20;56.30;;;;;;5055755;28;20048;-62
2021/06/03 03:16:51;;;;;;;1.15;1.05;;;24.40;56.50;;;;;;5055464;28;20039;-62
2021/06/03 03:19:18;;;;;;;1.60;1.27;;;24.10;56.30;;;;;;5054558;28;20029;-62
2021/06/03 03:21:43;;;;;;;1.20;1.10;;;24.10;56.30;;;;;;5055358;28;20478;-62
2021/06/03 03:24:09;;;;;;;1.35;1.25;;;24.40;56.50;;;;;;5055250;28;20037;-62
2021/06/03 03:26:35;;;;;;;1.40;1.30;;;24.10;56.40;;;;;;5055583;28;20017;-62
2021/06/03 03:29:00;;;;;;;1.35;1.25;;;24.10;56.40;;;;;;5055258;28;20482;-62
2021/06/03 03:31:26;;;;;;;1.42;1.02;;;24.60;56.60;;;;;;5055273;28;20060;-62
2021/06/03 03:33:51;;;;;;;1.42;1.25;;;24.00;56.40;;;;;;5055054;28;20418;-62
2021/06/03 03:36:17;;;;;;;1.45;1.35;;;24.10;56.40;;;;;;5055375;28;20021;-62
2021/06/03 03:38:43;;;;;;;1.10;1.00;;;24.40;56.60;;;;;;5053967;28;20106;-62
2021/06/03 03:41:08;;;;;;;1.20;1.10;;;24.10;56.50;;;;;;5055339;28;20051;-62
2021/06/03 03:43:34;;;;;;;1.40;1.30;;;24.00;56.40;;;;;;5054959;28;20498;-62
2021/06/03 03:45:59;;;;;;;1.33;1.23;;;23.90;56.40;;;;;;5055040;28;20089;-62
2021/06/03 03:48:25;;;;;;;1.40;1.30;;;24.10;78.90;;;;;;5053635;28;20411;-62
2021/06/03 03:50:51;;;;;;;1.27;1.17;;;24.00;56.50;;;;;;5053573;28;20560;-63
2021/06/03 03:53:16;;;;;;;1.60;1.20;;;24.00;56.50;;;;;;5054783;28;20096;-62
2021/06/03 03:55:42;;;;;;;1.17;1.08;;;24.40;56.70;;;;;;5054678;28;20078;-62
2021/06/03 03:58:07;;;;;;;1.60;1.05;;;24.10;56.60;;;;;;5054788;28;20053;-62
2021/06/03 04:00:34;;;;;;;1.33;1.23;;;24.00;56.50;;;;;;5054681;28;20514;-62
2021/06/03 04:03:00;;;;;;;1.02;0.93;;;24.10;56.60;;;;;;5054638;28;20476;-62
2021/06/03 04:05:27;;;;;;;1.30;1.20;;;24.00;56.50;;;;;;5054321;28;20045;-62
2021/06/03 04:07:52;;;;;;;1.75;1.65;;;24.00;56.60;;;;;;5054574;28;20017;-62
2021/06/03 04:10:21;;;;;;;1.35;1.25;;;24.00;56.60;;;;;;5054833;28;20025;-62
2021/06/03 04:12:48;;;;;;;1.48;1.20;;;24.00;56.60;;;;;;5054710;28;20052;-63
2021/06/03 04:15:14;;;;;;;1.70;1.23;;;24.00;56.60;;;;;;5054782;28;20048;-62
2021/06/03 04:17:40;;;;;;;1.38;1.20;;;24.00;56.60;;;;;;5054635;28;20014;-62
2021/06/03 04:20:09;;;;;;;2.25;1.33;;;24.10;56.70;;;;;;5054648;28;20029;-62
2021/06/03 04:22:35;;;;;;;1.23;1.13;;;24.00;56.60;;;;;;5054329;28;20156;-62
2021/06/03 04:25:02;;;;;;;1.73;1.30;;;23.70;56.50;;;;;;5054452;28;20142;-62
2021/06/03 04:27:27;;;;;;;1.50;1.40;;;23.90;56.60;;;;;;5054191;28;20029;-62
2021/06/03 04:29:53;;;;;;;1.33;1.23;;;24.30;56.80;;;;;;5052992;28;20040;-62
2021/06/03 04:32:19;;;;;;;2.20;1.38;;;24.00;56.70;;;;;;5054180;28;20052;-63
2021/06/03 04:34:44;;;;;;;1.27;1.10;;;23.90;56.70;;;;;;5054239;28;20024;-62
2021/06/03 04:37:13;;;;;;;1.27;1.10;;;23.90;56.70;;;;;;5054180;28;20017;-62
2021/06/03 04:39:39;;;;;;;1.27;1.17;;;23.90;56.70;;;;;;5054395;28;20035;-62
2021/06/03 04:42:05;;;;;;;1.08;1.00;;;23.90;56.70;;;;;;5054236;28;20017;-62
2021/06/03 04:44:31;;;;;;;3.05;1.10;;;23.90;56.80;;;;;;5053712;28;20119;-62
2021/06/03 04:46:57;;;;;;;1.55;1.20;;;23.90;56.80;;;;;;5053660;28;20074;-62
2021/06/03 04:49:23;;;;;;;1.45;1.23;;;24.30;57.00;;;;;;5054095;28;20082;-62
2021/06/03 04:51:49;;;;;;;1.40;1.30;;;23.90;56.70;;;;;;5053726;28;20423;-62
2021/06/03 04:54:14;;;;;;;1.70;1.20;;;23.90;56.80;;;;;;5052569;28;20104;-62
2021/06/03 04:56:40;;;;;;;0.90;0.90;;;23.80;56.70;;;;;;5053676;28;20055;-62
2021/06/03 04:59:06;;;;;;;1.98;1.10;;;23.90;56.80;;;;;;5053532;28;20025;-62
2021/06/03 05:01:31;;;;;;;1.65;1.17;;;23.90;56.80;;;;;;5053568;28;20024;-62
2021/06/03 05:03:57;;;;;;;1.65;1.48;;;24.20;57.00;;;;;;5053228;28;20114;-61
2021/06/03 05:06:23;;;;;;;1.23;1.13;;;23.90;56.80;;;;;;5053512;28;20024;-61
2021/06/03 05:08:48;;;;;;;1.58;1.48;;;24.40;57.10;;;;;;5053383;28;20025;-62
2021/06/03 05:11:14;;;;;;;2.30;1.42;;;23.90;56.80;;;;;;5053400;28;20025;-61
2021/06/03 05:13:40;;;;;;;1.27;1.17;;;24.20;57.00;;;;;;5053561;28;20013;-61
2021/06/03 05:16:07;;;;;;;1.40;1.30;;;24.30;57.00;;;;;;5053221;28;20488;-61
2021/06/03 05:18:33;;;;;;;2.13;1.30;;;24.30;57.00;;;;;;5053244;28;20174;-61
2021/06/03 05:20:59;;;;;;;1.40;1.30;;;23.90;57.10;;;;;;5053298;28;20087;-61
2021/06/03 05:23:24;;;;;;;1.73;1.40;;;23.90;56.80;;;;;;5053419;28;20052;-61
2021/06/03 05:25:50;;;;;;;1.20;1.10;;;24.00;56.90;;;;;;5053204;28;20429;-61
2021/06/03 05:28:16;;;;;;;1.70;1.30;;;24.20;57.00;;;;;;5053011;28;20046;-60
2021/06/03 05:30:42;;;;;;;1.83;1.10;;;23.90;56.90;;;;;;5053049;28;20114;-61
2021/06/03 05:33:08;;;;;;;1.17;1.10;;;23.90;56.90;;;;;;5053038;28;20025;-61
2021/06/03 05:35:34;;;;;;;1.73;1.50;;;23.90;56.90;;;;;;5053165;28;20116;-61
2021/06/03 05:38:00;;;;;;;1.13;1.10;;;24.20;57.10;;;;;;5053163;28;20092;-61
2021/06/03 05:40:27;;;;;;;1.30;1.20;;;23.90;56.90;;;;;;5051885;28;20056;-61
2021/06/03 05:42:55;;;;;;;1.35;1.25;;;23.90;57.00;;;;;;5052764;28;20027;-61
2021/06/03 05:45:21;;;;;;;1.52;1.40;;;23.90;57.00;;;;;;5034826;28;20039;-60
2021/06/03 05:47:47;;;;;;;1.30;1.20;;;23.90;56.90;;;;;;5052786;28;20013;-60
2021/06/03 05:50:15;;;;;;;2.83;1.40;;;24.10;57.70;;;;;;5052837;28;20112;-59
2021/06/03 05:52:41;;;;;;;1.60;1.50;;;24.00;57.30;;;;;;5052680;28;20088;-55
2021/06/03 05:55:10;;;;;;;1.33;1.23;;;24.00;57.40;;;;;;5052765;28;20036;-57
2021/06/03 05:57:36;;;;;;;1.40;1.30;;;24.00;57.40;;;;;;5051916;28;20025;-58
2021/06/03 06:00:06;;;;;;;3.58;1.35;;;24.10;57.50;;;;;;5052813;28;20028;-60
2021/06/03 06:02:44;;;;;;;4.00;1.50;;;24.00;57.70;;;;;;5051245;28;20052;-60
2021/06/03 06:07:55;;;;;;;2.40;1.38;;;24.00;57.70;;;;;;5052875;28;20489;-60
2021/06/03 06:10:20;;;;;;;5.45;1.85;;;23.70;57.60;;;;;;5053006;28;20029;-60
2021/06/03 06:12:46;;;;;;;3.35;1.80;;;23.90;57.80;;;;;;5052515;28;20017;-59
2021/06/03 06:15:12;;;;;;;6.30;1.58;;;23.80;58.00;;;;;;5052418;28;20029;-60
2021/06/03 06:17:38;;;;;;;4.40;2.05;;;23.90;58.20;;;;;;5052478;28;20029;-60
2021/06/03 06:20:04;;;;;;;2.83;1.58;;;23.70;58.30;;;;;;5052636;28;20028;-59
2021/06/03 06:22:30;;;;;;;10.23;1.85;;;23.90;58.50;;;;;;5052596;28;20036;-59
2021/06/03 06:24:56;;;;;;;4.28;1.60;;;23.80;58.50;;;;;;5052229;28;20044;-59
2021/06/03 06:27:22;;;;;;;5.70;2.03;;;23.90;58.60;;;;;;5051182;28;20033;-60
2021/06/03 06:29:47;;;;;;;6.55;2.08;;;23.90;58.60;;;;;;5052325;28;20057;-58
2021/06/03 06:32:13;;;;;;;5.30;1.75;;;23.70;58.40;;;;;;5052299;28;20106;-58
2021/06/03 06:34:39;;;;;;;2.38;1.80;;;24.20;58.60;;;;;;5052271;28;20021;-58
2021/06/03 06:37:04;;;;;;;5.30;1.98;;;24.30;58.70;;;;;;5052521;28;20056;-58
2021/06/03 06:39:30;;;;;;;3.63;2.05;;;24.00;58.50;;;;;;5052368;28;20112;-59
2021/06/03 06:41:56;;;;;;;3.00;1.70;;;23.80;58.40;;;;;;5052493;28;20025;-59
2021/06/03 06:44:22;;;;;;;3.28;1.80;;;24.00;58.40;;;;;;5051075;28;20430;-59
2021/06/03 06:46:47;;;;;;;2.28;1.90;;;24.00;58.40;;;;;;5052419;28;20026;-58
2021/06/03 06:49:13;;;;;;;5.82;2.40;;;24.10;58.50;;;;;;5052062;28;20017;-59
2021/06/03 06:51:39;;;;;;;6.25;2.90;;;23.90;80.50;;;;;;5051981;28;20037;-58
2021/06/03 06:54:04;;;;;;;3.13;2.17;;;24.40;59.00;;;;;;5052633;28;20104;-58
2021/06/03 06:56:30;;;;;;;3.90;2.55;;;24.00;58.90;;;;;;5052069;28;20102;-59
2021/06/03 06:58:56;;;;;;;4.85;3.13;;;24.00;59.00;;;;;;5052292;28;20033;-58
2021/06/03 07:01:21;;;;;;;4.10;2.70;;;24.10;59.40;;;;;;5052213;28;20059;-59
2021/06/03 07:03:47;;;;;;;3.90;2.78;;;24.10;59.60;;;;;;5051668;28;20048;-59
2021/06/03 07:06:12;;;;;;;6.35;2.90;;;24.50;60.00;;;;;;5052224;28;20036;-59
2021/06/03 07:08:38;;;;;;;4.43;2.88;;;24.50;60.00;;;;;;5052573;28;20100;-59
2021/06/03 07:11:04;;;;;;;8.93;3.53;;;24.50;60.20;;;;;;5055821;28;20025;-58
2021/06/03 07:13:29;;;;;;;7.47;3.50;;;24.40;60.30;;;;;;5055881;28;20017;-58
2021/06/03 07:15:55;;;;;;;5.07;3.42;;;24.50;60.80;;;;;;5055594;28;20553;-57
2021/06/03 07:18:21;;;;;;;7.45;4.07;;;24.10;60.90;;;;;;5055384;28;20039;-58
2021/06/03 07:20:47;;;;;;;7.90;4.22;;;24.20;61.30;;;;;;5055485;28;20029;-58
2021/06/03 07:23:13;;;;;;;6.00;3.47;;;23.80;61.20;;;;;;5055361;28;20455;-58
2021/06/03 07:25:40;;;;;;;6.82;3.60;;;24.40;61.80;;;;;;5055568;28;20052;-59
2021/06/03 07:28:07;;;;;;;4.90;3.60;;;24.20;61.80;;;;;;5055488;28;20056;-58
2021/06/03 07:30:34;;;;;;;4.10;3.47;;;24.20;61.90;;;;;;5055295;28;20025;-58
2021/06/03 07:33:00;;;;;;;7.47;3.65;;;24.40;62.00;;;;;;5055449;28;20021;-59
2021/06/03 07:35:28;;;;;;;5.95;3.40;;;24.50;62.70;;;;;;5054969;28;20031;-58
2021/06/03 07:37:54;;;;;;;5.43;3.53;;;24.40;62.10;;;;;;5055384;28;20021;-58
2021/06/03 07:40:25;;;;;;;6.53;3.50;;;24.30;62.40;;;;;;5055297;28;20028;-58
2021/06/03 07:42:51;;;;;;;5.50;3.28;;;24.20;62.40;;;;;;5055325;28;20017;-58
2021/06/03 07:45:22;;;;;;;5.82;3.15;;;24.50;62.50;;;;;;5054939;28;20033;-58
2021/06/03 07:47:48;;;;;;;5.85;3.67;;;24.40;62.20;;;;;;5055187;28;20025;-59
2021/06/03 07:50:14;;;;;;;10.27;3.83;;;24.30;62.50;;;;;;5054865;28;20025;-59
2021/06/03 07:52:41;;;;;;;6.25;3.72;;;24.20;62.20;;;;;;5055032;28;20101;-58
2021/06/03 07:55:10;;;;;;;6.28;3.85;;;24.20;62.30;;;;;;5054945;28;20383;-59
2021/06/03 07:57:35;;;;;;;8.10;4.28;;;24.20;62.30;;;;;;5054994;28;20190;-59
2021/06/03 08:00:04;;;;;;;6.05;3.75;;;24.40;62.40;;;;;;5054903;28;20111;-57
2021/06/03 08:02:30;;;;;;;5.20;3.40;;;24.20;62.40;;;;;;5054474;28;20024;-59
2021/06/03 08:04:56;;;;;;;4.90;3.92;;;24.20;62.30;;;;;;5054281;28;20381;-58
2021/06/03 08:07:21;;;;;;;5.70;3.67;;;24.20;62.40;;;;;;5054831;28;20021;-57
2021/06/03 08:09:47;;;;;;;5.50;3.47;;;24.20;62.40;;;;;;5054704;28;20490;-59
2021/06/03 08:12:13;;;;;;;6.35;3.38;;;24.50;62.60;;;;;;5054377;28;20028;-58
2021/06/03 08:14:39;;;;;;;5.22;3.85;;;24.20;62.30;;;;;;5053256;28;20025;-58
2021/06/03 08:17:05;;;;;;;6.80;2.70;;;24.00;62.20;;;;;;5054634;28;20371;-58
2021/06/03 08:19:31;;;;;;;3.55;2.90;;;24.40;62.30;;;;;;5054298;28;20490;-58
2021/06/03 08:21:56;;;;;;;5.20;3.50;;;24.30;62.00;;;;;;5053623;28;20041;-58
2021/06/03 08:24:22;;;;;;;6.47;3.08;;;24.30;61.90;;;;;;5054152;28;20033;-59
2021/06/03 08:26:50;;;;;;;6.47;2.85;;;24.60;61.90;;;;;;5054125;28;20384;-59
2021/06/03 08:29:17;;;;;;;7.22;2.80;;;24.40;61.80;;;;;;5054295;28;20025;-58
2021/06/03 08:31:43;;;;;;;5.72;2.80;;;24.40;61.70;;;;;;5054087;28;20438;-58
2021/06/03 08:34:09;;;;;;;3.50;2.70;;;24.20;61.50;;;;;;5054029;28;20017;-57
2021/06/03 08:36:34;;;;;;;5.28;2.72;;;24.40;61.40;;;;;;5054168;28;20029;-58
2021/06/03 08:39:00;;;;;;;6.13;2.65;;;24.50;61.30;;;;;;5053892;28;20028;-57
2021/06/03 08:41:26;;;;;;;6.55;2.55;;;24.30;61.20;;;;;;5054094;28;20032;-58
2021/06/03 08:43:52;;;;;;;5.53;2.75;;;24.40;61.20;;;;;;5053896;28;20045;-58
2021/06/03 08:46:17;;;;;;;4.93;3.17;;;24.40;61.20;;;;;;5053800;28;20357;-57
2021/06/03 08:48:46;;;;;;;5.45;2.88;;;24.50;61.40;;;;;;5053645;28;20025;-58
2021/06/03 08:51:11;;;;;;;6.78;3.00;;;24.50;61.40;;;;;;5053880;28;20388;-58
2021/06/03 08:53:37;;;;;;;5.43;2.88;;;24.90;61.60;;;;;;5053344;28;20032;-58
2021/06/03 08:56:19;;;;;;;2.63;2.42;;;24.50;61.40;;;;;;5051869;28;20412;-58
2021/06/03 08:58:53;;;;;;;5.57;2.80;;;24.50;61.40;;;;;;5053261;28;20491;-58
2021/06/03 09:01:20;;;;;;;6.15;2.70;;;24.90;61.60;;;;;;5053225;28;20100;-61
2021/06/03 09:03:47;;;;;;;5.07;2.90;;;24.50;61.30;;;;;;5051612;28;20056;-58
2021/06/03 09:06:15;;;;;;;5.18;3.22;;;24.50;61.30;;;;;;5053486;28;20037;-58
2021/06/03 09:08:49;;;;;;;4.68;2.78;;;24.50;61.30;;;;;;5053052;28;20093;-58
2021/06/03 09:11:17;;;;;;;4.47;3.08;;;24.50;61.20;;;;;;5053442;28;20378;-59
2021/06/03 09:13:56;;;;;;;5.65;2.72;;;24.70;61.50;;;;;;5053284;28;20106;-59
2021/06/03 09:16:33;;;;;;;8.43;2.63;;;24.60;61.40;;;;;;5053296;28;20448;-58
2021/06/03 09:19:10;;;;;;;4.53;3.05;;;24.90;61.60;;;;;;5053285;28;20025;-59
2021/06/03 09:21:43;;;;;;;5.15;3.35;;;24.10;61.10;;;;;;5052942;28;20082;-59
2021/06/03 09:24:12;;;;;;;6.07;2.95;;;24.60;61.40;;;;;;5053004;28;20116;-58
2021/06/03 09:26:44;;;;;;;3.30;3.00;;;24.60;61.50;;;;;;5053044;28;20415;-59
2021/06/03 09:29:10;;;;;;;3.42;3.13;;;24.60;61.30;;;;;;5052762;28;20542;-59
2021/06/03 09:31:37;;;;;;;5.53;3.00;;;24.70;61.50;;;;;;5052738;28;20025;-59
2021/06/03 09:34:08;;;;;;;4.22;3.00;;;25.00;61.70;;;;;;5052979;28;20033;-58
2021/06/03 09:36:41;;;;;;;4.10;3.05;;;24.60;61.40;;;;;;5052742;28;20025;-58
2021/06/03 09:39:18;;;;;;;3.67;3.25;;;24.60;61.40;;;;;;5053208;28;20023;-59
2021/06/03 09:41:57;;;;;;;5.35;2.88;;;24.60;61.40;;;;;;5052987;28;20111;-59
2021/06/03 09:44:31;;;;;;;5.95;3.50;;;24.70;61.50;;;;;;5052718;28;20040;-59
2021/06/03 09:47:10;;;;;;;3.95;3.40;;;24.60;61.30;;;;;;5051838;28;20033;-59
2021/06/03 09:49:41;;;;;;;5.43;3.40;;;24.60;61.50;;;;;;5053217;28;20021;-58
2021/06/03 09:52:12;;;;;;;5.93;3.33;;;24.60;61.60;;;;;;5052915;28;20021;-59
2021/06/03 09:54:39;;;;;;;4.03;3.33;;;24.60;61.80;;;;;;5052575;28;20487;-58
2021/06/03 09:57:12;;;;;;;3.78;3.38;;;24.60;61.70;;;;;;5052399;28;20032;-59
2021/06/03 09:59:43;;;;;;;7.38;3.58;;;24.30;61.40;;;;;;5052922;28;20025;-59
2021/06/03 10:54:51;;;;;;;6.32;3.45;;;24.80;61.10;;;;;;5032849;28;20068;-59
2021/06/03 10:57:47;;;;;;;4.93;3.13;;;24.90;61.00;;;;;;5056281;28;20040;-59
2021/06/03 11:00:30;;;;;;;2.92;2.72;;;24.90;60.90;;;;;;5056007;28;20090;-59
2021/06/03 11:03:05;;;;;;;3.65;3.10;;;24.90;60.80;;;;;;5056264;28;20049;-59
2021/06/03 11:05:40;;;;;;;3.35;3.00;;;24.90;60.80;;;;;;5054793;28;20472;-59
2021/06/03 11:08:23;;;;;;;3.80;3.47;;;25.00;60.70;;;;;;5056008;28;20021;-59
2021/06/03 11:10:50;;;;;;;3.60;2.85;;;25.00;60.70;;;;;;5055840;28;20075;-59
2021/06/03 11:13:20;;;;;;;3.35;3.05;;;25.00;60.60;;;;;;5055741;28;20033;-59
2021/06/03 11:16:06;;;;;;;5.18;2.78;;;25.00;60.50;;;;;;5055653;28;20036;-59
2021/06/03 11:18:47;;;;;;;3.53;3.22;;;25.10;60.40;;;;;;5055624;28;20021;-59
2021/06/03 11:21:35;;;;;;;4.57;3.25;;;25.20;60.40;;;;;;5055607;28;20025;-59
2021/06/03 11:24:03;;;;;;;4.20;3.20;;;25.10;60.20;;;;;;5055687;28;20392;-59
2021/06/03 11:26:38;;;;;;;3.35;2.83;;;24.80;60.10;;;;;;5055581;28;20060;-59
2021/06/03 11:29:26;;;;;;;3.45;2.70;;;25.50;60.40;;;;;;5055677;28;20053;-59
2021/06/03 11:32:04;;;;;;;4.18;2.80;;;25.10;60.00;;;;;;5055392;28;20021;-59
2021/06/03 11:34:41;;;;;;;2.92;2.72;;;25.10;60.00;;;;;;5055445;28;20029;-59
2021/06/03 11:37:15;;;;;;;3.08;2.60;;;25.30;60.00;;;;;;5055259;28;20025;-59
2021/06/03 11:39:54;;;;;;;3.30;2.97;;;25.20;59.90;;;;;;5055703;28;20018;-59
2021/06/03 11:42:43;;;;;;;3.00;2.80;;;25.20;59.90;;;;;;5055215;28;20029;-59
2021/06/03 11:45:23;;;;;;;3.25;3.03;;;25.20;59.90;;;;;;5055176;28;20299;-60
2021/06/03 11:47:48;;;;;;;5.30;2.67;;;25.60;60.20;;;;;;5055357;28;20025;-59
2021/06/03 11:50:17;;;;;;;3.45;2.88;;;25.20;81.00;;;;;;5055214;28;20029;-59
2021/06/03 11:53:02;;;;;;;3.15;2.80;;;25.20;59.80;;;;;;5055494;28;20029;-59
2021/06/03 11:56:06;;;;;;;4.25;3.15;;;25.60;59.90;;;;;;5053523;28;20131;-59
2021/06/03 11:58:41;;;;;;;3.13;2.80;;;25.30;59.70;;;;;;5051712;28;20037;-60
2021/06/03 12:01:31;;;;;;;4.50;3.15;;;25.60;59.80;;;;;;5054719;28;20100;-59
2021/06/03 12:04:17;;;;;;;4.88;2.95;;;25.30;59.60;;;;;;5047123;28;20127;-59
2021/06/03 12:06:48;;;;;;;3.67;2.72;;;25.30;59.60;;;;;;5055002;28;20025;-59
2021/06/03 12:09:27;;;;;;;4.20;3.08;;;25.30;59.50;;;;;;5053276;28;20033;-59
2021/06/03 12:11:59;;;;;;;4.30;2.92;;;25.30;60.20;;;;;;5054867;28;20021;-57
2021/06/03 12:14:27;;;;;;;3.17;2.72;;;25.30;59.50;;;;;;5054500;28;20071;-57
2021/06/03 12:16:58;;;;;;;5.88;3.08;;;25.30;59.50;;;;;;5054495;28;20021;-60
2021/06/03 12:19:25;;;;;;;3.67;2.67;;;25.30;59.40;;;;;;5054222;28;20025;-59
2021/06/03 12:22:13;;;;;;;3.40;2.78;;;25.40;59.50;;;;;;5054287;28;20526;-59
2021/06/03 12:24:57;;;;;;;3.15;2.85;;;25.50;59.50;;;;;;5053984;28;20036;-59
2021/06/03 12:27:29;;;;;;;3.53;2.83;;;25.10;59.20;;;;;;5053950;28;20021;-60
2021/06/03 12:30:09;;;;;;;4.97;2.80;;;25.60;59.50;;;;;;5054270;28;20029;-60
2021/06/03 12:32:34;;;;;;;3.28;2.78;;;25.30;59.30;;;;;;5054149;28;20116;-59
2021/06/03 12:35:02;;;;;;;3.83;2.95;;;25.40;59.40;;;;;;5054443;28;20128;-59
2021/06/03 12:37:31;;;;;;;3.60;2.80;;;25.40;59.40;;;;;;5053942;28;20023;-60
2021/06/03 12:39:57;;;;;;;6.95;2.60;;;25.40;59.30;;;;;;5053682;28;20103;-59
2021/06/03 12:42:31;;;;;;;3.83;2.92;;;25.40;59.30;;;;;;5053902;28;20043;-60
2021/06/03 12:45:00;;;;;;;4.10;2.70;;;25.50;59.30;;;;;;5052525;28;20044;-60
2021/06/03 12:47:30;;;;;;;3.72;3.42;;;25.40;59.20;;;;;;5053880;28;20021;-60
2021/06/03 12:50:10;;;;;;;5.72;3.20;;;25.50;80.40;;;;;;5053750;28;20086;-59
2021/06/03 12:52:36;;;;;;;3.85;3.40;;;25.50;59.20;;;;;;5053906;28;20033;-60
2021/06/03 12:55:04;;;;;;;3.10;2.80;;;25.50;59.10;;;;;;5053621;28;20057;-60
2021/06/03 12:57:29;;;;;;;3.22;2.78;;;25.50;59.10;;;;;;5053645;28;20087;-59
2021/06/03 12:59:57;;;;;;;3.63;3.30;;;25.50;59.00;;;;;;5053631;28;20059;-60
2021/06/03 13:02:31;;;;;;;3.78;3.17;;;25.70;59.10;;;;;;5053719;28;20021;-59
2021/06/03 13:04:57;;;;;;;3.65;3.10;;;25.50;58.90;;;;;;5052203;28;20097;-59
2021/06/03 13:07:31;;;;;;;3.13;2.90;;;25.50;58.90;;;;;;5051925;28;20126;-59
2021/06/03 13:10:06;;;;;;;3.35;2.88;;;25.50;58.90;;;;;;5053756;28;20033;-59
2021/06/03 13:12:31;;;;;;;3.20;2.95;;;25.50;58.90;;;;;;5053224;28;20040;-59
2021/06/03 13:14:59;;;;;;;3.95;2.88;;;25.50;58.80;;;;;;5034821;28;20114;-59
2021/06/03 13:17:48;;;;;;;3.42;3.10;;;25.60;58.90;;;;;;5053231;28;20112;-59
2021/06/03 13:20:22;;;;;;;5.20;3.17;;;25.80;59.20;;;;;;5051642;28;20025;-59
2021/06/03 13:22:53;;;;;;;3.13;2.80;;;25.50;59.00;;;;;;5053072;28;20029;-60
2021/06/03 13:25:19;;;;;;;3.08;2.78;;;25.60;59.00;;;;;;5052714;28;20044;-59
2021/06/03 13:27:46;;;;;;;3.35;3.15;;;25.70;59.20;;;;;;5052845;28;20210;-59
2021/06/03 13:30:24;;;;;;;4.50;3.13;;;25.50;59.10;;;;;;5052985;28;20092;-59
2021/06/03 13:32:52;;;;;;;3.10;2.88;;;25.50;59.10;;;;;;5035318;28;20032;-59
2021/06/03 13:35:21;;;;;;;2.92;2.63;;;25.50;59.10;;;;;;5052852;28;20029;-59
2021/06/03 13:37:51;;;;;;;3.35;3.05;;;25.50;59.20;;;;;;5052841;28;20060;-59
2021/06/03 13:40:22;;;;;;;2.95;2.63;;;25.50;59.20;;;;;;5053098;28;20470;-59
2021/06/03 13:42:51;;;;;;;4.97;3.13;;;25.50;59.20;;;;;;5052779;28;20043;-59
2021/06/03 13:45:27;;;;;;;3.75;3.20;;;25.90;59.40;;;;;;5053006;28;20430;-59
2021/06/03 13:47:57;;;;;;;4.07;3.35;;;25.50;59.20;;;;;;5051499;28;20029;-59
2021/06/03 13:50:36;;;;;;;4.50;3.33;;;25.50;59.20;;;;;;5052702;28;20052;-59
2021/06/03 13:53:27;;;;;;;3.67;3.35;;;25.50;59.20;;;;;;5052899;28;20101;-59